<?xml version="1.0" encoding="UTF-8" standalone="no" ?>
<gpx xmlns="http://www.topografix.com/GPX/1/1" xmlns:xsi="http://www.w3.org/2001/XMLSchema-instance" xsi:schemaLocation="http://www.topografix.com/GPX/1/1 http://www.topografix.com/GPX/1/1/gpx.xsd" version="1.1" creator="VisuGPX - https://www.visugpx.com">
  <metadata>
    <name>12426717-Des Conches à La Tranche 18.507 kms</name>
    <desc><![CDATA[entre mer et forêt
des conches à la tranche sur mer]]></desc>
  </metadata>
  <trk>
    <name><![CDATA[12426717-Des Conches à La Tranche 18.507 kms]]></name>
    <trkseg>
      <trkpt lat="46.38709" lon="-1.46935">
        <ele>6</ele>
        <time>2021-01-13T20:18:03Z</time>
      </trkpt>
      <trkpt lat="46.38678" lon="-1.46988">
        <ele>7</ele>
        <time>2021-01-13T20:19:07Z</time>
      </trkpt>
      <trkpt lat="46.38633" lon="-1.46984">
        <ele>6</ele>
        <time>2021-01-13T20:20:07Z</time>
      </trkpt>
      <trkpt lat="46.38595" lon="-1.46982">
        <ele>6</ele>
        <time>2021-01-13T20:20:58Z</time>
      </trkpt>
      <trkpt lat="46.38523" lon="-1.47025">
        <ele>7</ele>
        <time>2021-01-13T20:22:42Z</time>
      </trkpt>
      <trkpt lat="46.38489" lon="-1.47052">
        <ele>8</ele>
        <time>2021-01-13T20:23:34Z</time>
      </trkpt>
      <trkpt lat="46.38378" lon="-1.47018">
        <ele>12</ele>
        <time>2021-01-13T20:26:05Z</time>
      </trkpt>
      <trkpt lat="46.38373" lon="-1.47174">
        <ele>12</ele>
        <time>2021-01-13T20:28:29Z</time>
      </trkpt>
      <trkpt lat="46.38343" lon="-1.47264">
        <ele>17</ele>
        <time>2021-01-13T20:30:01Z</time>
      </trkpt>
      <trkpt lat="46.38344" lon="-1.47309">
        <ele>18</ele>
        <time>2021-01-13T20:30:42Z</time>
      </trkpt>
      <trkpt lat="46.38314" lon="-1.47393">
        <ele>17</ele>
        <time>2021-01-13T20:32:09Z</time>
      </trkpt>
      <trkpt lat="46.38297" lon="-1.47494">
        <ele>15</ele>
        <time>2021-01-13T20:33:45Z</time>
      </trkpt>
      <trkpt lat="46.38296" lon="-1.47589">
        <ele>14</ele>
        <time>2021-01-13T20:35:12Z</time>
      </trkpt>
      <trkpt lat="46.3828" lon="-1.47856">
        <ele>13</ele>
        <time>2021-01-13T20:39:19Z</time>
      </trkpt>
      <trkpt lat="46.38359" lon="-1.4811">
        <ele>13</ele>
        <time>2021-01-13T20:43:36Z</time>
      </trkpt>
      <trkpt lat="46.3836" lon="-1.48134">
        <ele>13</ele>
        <time>2021-01-13T20:43:58Z</time>
      </trkpt>
      <trkpt lat="46.3835" lon="-1.48162">
        <ele>13</ele>
        <time>2021-01-13T20:44:27Z</time>
      </trkpt>
      <trkpt lat="46.37753" lon="-1.47597">
        <ele>12</ele>
        <time>2021-01-13T21:00:18Z</time>
      </trkpt>
      <trkpt lat="46.37663" lon="-1.47734">
        <ele>13</ele>
        <time>2021-01-13T21:03:12Z</time>
      </trkpt>
      <trkpt lat="46.37557" lon="-1.47834">
        <ele>16</ele>
        <time>2021-01-13T21:06:01Z</time>
      </trkpt>
      <trkpt lat="46.37518" lon="-1.47842">
        <ele>16</ele>
        <time>2021-01-13T21:06:54Z</time>
      </trkpt>
      <trkpt lat="46.37516" lon="-1.4791">
        <ele>15</ele>
        <time>2021-01-13T21:07:56Z</time>
      </trkpt>
      <trkpt lat="46.37365" lon="-1.4798">
        <ele>16</ele>
        <time>2021-01-13T21:11:28Z</time>
      </trkpt>
      <trkpt lat="46.37254" lon="-1.47986">
        <ele>12</ele>
        <time>2021-01-13T21:13:56Z</time>
      </trkpt>
      <trkpt lat="46.37183" lon="-1.48029">
        <ele>9</ele>
        <time>2021-01-13T21:15:39Z</time>
      </trkpt>
      <trkpt lat="46.36886" lon="-1.47831">
        <ele>11</ele>
        <time>2021-01-13T21:22:55Z</time>
      </trkpt>
      <trkpt lat="46.36548" lon="-1.47632">
        <ele>11</ele>
        <time>2021-01-13T21:31:02Z</time>
      </trkpt>
      <trkpt lat="46.36169" lon="-1.47567">
        <ele>12</ele>
        <time>2021-01-13T21:39:31Z</time>
      </trkpt>
      <trkpt lat="46.36114" lon="-1.47535">
        <ele>11</ele>
        <time>2021-01-13T21:40:50Z</time>
      </trkpt>
      <trkpt lat="46.36015" lon="-1.47403">
        <ele>9</ele>
        <time>2021-01-13T21:43:50Z</time>
      </trkpt>
      <trkpt lat="46.35986" lon="-1.47314">
        <ele>12</ele>
        <time>2021-01-13T21:45:20Z</time>
      </trkpt>
      <trkpt lat="46.35977" lon="-1.47482">
        <ele>10</ele>
        <time>2021-01-13T21:47:56Z</time>
      </trkpt>
      <trkpt lat="46.35865" lon="-1.47459">
        <ele>9</ele>
        <time>2021-01-13T21:50:27Z</time>
      </trkpt>
      <trkpt lat="46.35801" lon="-1.47452">
        <ele>10</ele>
        <time>2021-01-13T21:51:52Z</time>
      </trkpt>
      <trkpt lat="46.35742" lon="-1.47425">
        <ele>12</ele>
        <time>2021-01-13T21:53:15Z</time>
      </trkpt>
      <trkpt lat="46.35514" lon="-1.47279">
        <ele>12</ele>
        <time>2021-01-13T21:58:47Z</time>
      </trkpt>
      <trkpt lat="46.35429" lon="-1.47242">
        <ele>11</ele>
        <time>2021-01-13T22:00:46Z</time>
      </trkpt>
      <trkpt lat="46.35349" lon="-1.4725">
        <ele>11</ele>
        <time>2021-01-13T22:02:33Z</time>
      </trkpt>
      <trkpt lat="46.35267" lon="-1.47203">
        <ele>10</ele>
        <time>2021-01-13T22:04:31Z</time>
      </trkpt>
      <trkpt lat="46.35056" lon="-1.47102">
        <ele>10</ele>
        <time>2021-01-13T22:09:27Z</time>
      </trkpt>
      <trkpt lat="46.34911" lon="-1.4707">
        <ele>8</ele>
        <time>2021-01-13T22:12:43Z</time>
      </trkpt>
      <trkpt lat="46.34866" lon="-1.47029">
        <ele>8</ele>
        <time>2021-01-13T22:13:54Z</time>
      </trkpt>
      <trkpt lat="46.349" lon="-1.46952">
        <ele>11</ele>
        <time>2021-01-13T22:15:18Z</time>
      </trkpt>
      <trkpt lat="46.34975" lon="-1.46856">
        <ele>15</ele>
        <time>2021-01-13T22:17:32Z</time>
      </trkpt>
      <trkpt lat="46.34997" lon="-1.46773">
        <ele>14</ele>
        <time>2021-01-13T22:18:53Z</time>
      </trkpt>
      <trkpt lat="46.34939" lon="-1.46744">
        <ele>15</ele>
        <time>2021-01-13T22:20:15Z</time>
      </trkpt>
      <trkpt lat="46.34872" lon="-1.4676">
        <ele>15</ele>
        <time>2021-01-13T22:21:46Z</time>
      </trkpt>
      <trkpt lat="46.34836" lon="-1.46785">
        <ele>15</ele>
        <time>2021-01-13T22:22:39Z</time>
      </trkpt>
      <trkpt lat="46.34729" lon="-1.46827">
        <ele>13</ele>
        <time>2021-01-13T22:25:07Z</time>
      </trkpt>
      <trkpt lat="46.34721" lon="-1.46795">
        <ele>11</ele>
        <time>2021-01-13T22:25:39Z</time>
      </trkpt>
      <trkpt lat="46.3458" lon="-1.4686">
        <ele>8</ele>
        <time>2021-01-13T22:28:56Z</time>
      </trkpt>
      <trkpt lat="46.3454" lon="-1.46791">
        <ele>9</ele>
        <time>2021-01-13T22:30:19Z</time>
      </trkpt>
      <trkpt lat="46.34501" lon="-1.46764">
        <ele>9</ele>
        <time>2021-01-13T22:31:17Z</time>
      </trkpt>
      <trkpt lat="46.34493" lon="-1.46731">
        <ele>10</ele>
        <time>2021-01-13T22:31:49Z</time>
      </trkpt>
      <trkpt lat="46.34508" lon="-1.46642">
        <ele>10</ele>
        <time>2021-01-13T22:33:13Z</time>
      </trkpt>
      <trkpt lat="46.34455" lon="-1.46601">
        <ele>8</ele>
        <time>2021-01-13T22:34:33Z</time>
      </trkpt>
      <trkpt lat="46.34368" lon="-1.46594">
        <ele>7</ele>
        <time>2021-01-13T22:36:30Z</time>
      </trkpt>
      <trkpt lat="46.34381" lon="-1.46412">
        <ele>10</ele>
        <time>2021-01-13T22:39:18Z</time>
      </trkpt>
      <trkpt lat="46.344" lon="-1.46323">
        <ele>11</ele>
        <time>2021-01-13T22:40:44Z</time>
      </trkpt>
      <trkpt lat="46.34376" lon="-1.46223">
        <ele>10</ele>
        <time>2021-01-13T22:42:22Z</time>
      </trkpt>
      <trkpt lat="46.34377" lon="-1.46094">
        <ele>8</ele>
        <time>2021-01-13T22:44:20Z</time>
      </trkpt>
      <trkpt lat="46.34366" lon="-1.46044">
        <ele>7</ele>
        <time>2021-01-13T22:45:09Z</time>
      </trkpt>
      <trkpt lat="46.34374" lon="-1.45961">
        <ele>7</ele>
        <time>2021-01-13T22:46:26Z</time>
      </trkpt>
      <trkpt lat="46.34403" lon="-1.4589">
        <ele>7</ele>
        <time>2021-01-13T22:47:42Z</time>
      </trkpt>
      <trkpt lat="46.34406" lon="-1.45819">
        <ele>7</ele>
        <time>2021-01-13T22:48:48Z</time>
      </trkpt>
      <trkpt lat="46.34392" lon="-1.45767">
        <ele>7</ele>
        <time>2021-01-13T22:49:39Z</time>
      </trkpt>
      <trkpt lat="46.34356" lon="-1.45708">
        <ele>7</ele>
        <time>2021-01-13T22:50:52Z</time>
      </trkpt>
      <trkpt lat="46.34336" lon="-1.45554">
        <ele>6</ele>
        <time>2021-01-13T22:53:16Z</time>
      </trkpt>
      <trkpt lat="46.34313" lon="-1.45554">
        <ele>7</ele>
        <time>2021-01-13T22:53:47Z</time>
      </trkpt>
      <trkpt lat="46.3428" lon="-1.45527">
        <ele>8</ele>
        <time>2021-01-13T22:54:37Z</time>
      </trkpt>
      <trkpt lat="46.34252" lon="-1.45336">
        <ele>7</ele>
        <time>2021-01-13T22:57:37Z</time>
      </trkpt>
      <trkpt lat="46.34257" lon="-1.45267">
        <ele>5</ele>
        <time>2021-01-13T22:58:41Z</time>
      </trkpt>
      <trkpt lat="46.34181" lon="-1.44947">
        <ele>7</ele>
        <time>2021-01-13T23:03:53Z</time>
      </trkpt>
      <trkpt lat="46.34159" lon="-1.44738">
        <ele>6</ele>
        <time>2021-01-13T23:07:07Z</time>
      </trkpt>
      <trkpt lat="46.34175" lon="-1.44721">
        <ele>6</ele>
        <time>2021-01-13T23:07:34Z</time>
      </trkpt>
      <trkpt lat="46.34141" lon="-1.4469">
        <ele>6</ele>
        <time>2021-01-13T23:08:28Z</time>
      </trkpt>
      <trkpt lat="46.34107" lon="-1.44648">
        <ele>5</ele>
        <time>2021-01-13T23:09:27Z</time>
      </trkpt>
      <trkpt lat="46.34125" lon="-1.44514">
        <ele>6</ele>
        <time>2021-01-13T23:11:33Z</time>
      </trkpt>
      <trkpt lat="46.34103" lon="-1.44474">
        <ele>5</ele>
        <time>2021-01-13T23:12:20Z</time>
      </trkpt>
      <trkpt lat="46.34107" lon="-1.44417">
        <ele>7</ele>
        <time>2021-01-13T23:13:13Z</time>
      </trkpt>
      <trkpt lat="46.34099" lon="-1.4427">
        <ele>6</ele>
        <time>2021-01-13T23:15:29Z</time>
      </trkpt>
      <trkpt lat="46.34037" lon="-1.43778">
        <ele>4</ele>
        <time>2021-01-13T23:23:09Z</time>
      </trkpt>
      <trkpt lat="46.34234" lon="-1.43836">
        <ele>7</ele>
        <time>2021-01-13T23:27:38Z</time>
      </trkpt>
      <trkpt lat="46.34221" lon="-1.43945">
        <ele>7</ele>
        <time>2021-01-13T23:29:20Z</time>
      </trkpt>
      <trkpt lat="46.34168" lon="-1.44019">
        <ele>5</ele>
        <time>2021-01-13T23:30:58Z</time>
      </trkpt>
      <trkpt lat="46.34118" lon="-1.44089">
        <ele>6</ele>
        <time>2021-01-13T23:32:31Z</time>
      </trkpt>
      <trkpt lat="46.34129" lon="-1.44258">
        <ele>6</ele>
        <time>2021-01-13T23:35:07Z</time>
      </trkpt>
      <trkpt lat="46.3419" lon="-1.44318">
        <ele>6</ele>
        <time>2021-01-13T23:36:45Z</time>
      </trkpt>
      <trkpt lat="46.34293" lon="-1.44366">
        <ele>7</ele>
        <time>2021-01-13T23:39:10Z</time>
      </trkpt>
      <trkpt lat="46.34389" lon="-1.44371">
        <ele>11</ele>
        <time>2021-01-13T23:41:18Z</time>
      </trkpt>
      <trkpt lat="46.34478" lon="-1.4437">
        <ele>13</ele>
        <time>2021-01-13T23:43:17Z</time>
      </trkpt>
      <trkpt lat="46.34525" lon="-1.44534">
        <ele>9</ele>
        <time>2021-01-13T23:46:00Z</time>
      </trkpt>
      <trkpt lat="46.34527" lon="-1.44598">
        <ele>9</ele>
        <time>2021-01-13T23:46:59Z</time>
      </trkpt>
      <trkpt lat="46.34505" lon="-1.44702">
        <ele>12</ele>
        <time>2021-01-13T23:48:40Z</time>
      </trkpt>
      <trkpt lat="46.34513" lon="-1.44799">
        <ele>13</ele>
        <time>2021-01-13T23:50:10Z</time>
      </trkpt>
      <trkpt lat="46.34525" lon="-1.4491">
        <ele>11</ele>
        <time>2021-01-13T23:51:53Z</time>
      </trkpt>
      <trkpt lat="46.34592" lon="-1.4491">
        <ele>12</ele>
        <time>2021-01-13T23:53:22Z</time>
      </trkpt>
      <trkpt lat="46.34605" lon="-1.44988">
        <ele>10</ele>
        <time>2021-01-13T23:54:36Z</time>
      </trkpt>
      <trkpt lat="46.34634" lon="-1.45071">
        <ele>15</ele>
        <time>2021-01-13T23:56:02Z</time>
      </trkpt>
      <trkpt lat="46.34644" lon="-1.45168">
        <ele>17</ele>
        <time>2021-01-13T23:57:32Z</time>
      </trkpt>
      <trkpt lat="46.3465" lon="-1.45268">
        <ele>18</ele>
        <time>2021-01-13T23:59:05Z</time>
      </trkpt>
      <trkpt lat="46.34669" lon="-1.45354">
        <ele>17</ele>
        <time>2021-01-14T00:00:28Z</time>
      </trkpt>
      <trkpt lat="46.34631" lon="-1.45662">
        <ele>16</ele>
        <time>2021-01-14T00:05:16Z</time>
      </trkpt>
      <trkpt lat="46.34637" lon="-1.45835">
        <ele>16</ele>
        <time>2021-01-14T00:07:56Z</time>
      </trkpt>
      <trkpt lat="46.3465" lon="-1.45892">
        <ele>16</ele>
        <time>2021-01-14T00:08:51Z</time>
      </trkpt>
      <trkpt lat="46.34716" lon="-1.45927">
        <ele>18</ele>
        <time>2021-01-14T00:10:25Z</time>
      </trkpt>
      <trkpt lat="46.34715" lon="-1.46006">
        <ele>18</ele>
        <time>2021-01-14T00:11:38Z</time>
      </trkpt>
      <trkpt lat="46.34716" lon="-1.46077">
        <ele>16</ele>
        <time>2021-01-14T00:12:43Z</time>
      </trkpt>
      <trkpt lat="46.34727" lon="-1.4616">
        <ele>15</ele>
        <time>2021-01-14T00:14:01Z</time>
      </trkpt>
      <trkpt lat="46.34774" lon="-1.46123">
        <ele>17</ele>
        <time>2021-01-14T00:15:12Z</time>
      </trkpt>
      <trkpt lat="46.34863" lon="-1.46137">
        <ele>18</ele>
        <time>2021-01-14T00:17:12Z</time>
      </trkpt>
      <trkpt lat="46.34854" lon="-1.4617">
        <ele>17</ele>
        <time>2021-01-14T00:17:45Z</time>
      </trkpt>
      <trkpt lat="46.34876" lon="-1.46342">
        <ele>17</ele>
        <time>2021-01-14T00:20:26Z</time>
      </trkpt>
      <trkpt lat="46.34955" lon="-1.46505">
        <ele>15</ele>
        <time>2021-01-14T00:23:29Z</time>
      </trkpt>
      <trkpt lat="46.34995" lon="-1.46487">
        <ele>17</ele>
        <time>2021-01-14T00:24:25Z</time>
      </trkpt>
      <trkpt lat="46.35041" lon="-1.46371">
        <ele>19</ele>
        <time>2021-01-14T00:26:28Z</time>
      </trkpt>
      <trkpt lat="46.35085" lon="-1.46292">
        <ele>18</ele>
        <time>2021-01-14T00:28:02Z</time>
      </trkpt>
      <trkpt lat="46.35196" lon="-1.46387">
        <ele>17</ele>
        <time>2021-01-14T00:30:54Z</time>
      </trkpt>
      <trkpt lat="46.35219" lon="-1.46489">
        <ele>16</ele>
        <time>2021-01-14T00:32:33Z</time>
      </trkpt>
      <trkpt lat="46.35277" lon="-1.46644">
        <ele>12</ele>
        <time>2021-01-14T00:35:15Z</time>
      </trkpt>
      <trkpt lat="46.35251" lon="-1.46838">
        <ele>12</ele>
        <time>2021-01-14T00:38:17Z</time>
      </trkpt>
      <trkpt lat="46.35299" lon="-1.46835">
        <ele>13</ele>
        <time>2021-01-14T00:39:21Z</time>
      </trkpt>
      <trkpt lat="46.35311" lon="-1.46776">
        <ele>12</ele>
        <time>2021-01-14T00:40:18Z</time>
      </trkpt>
      <trkpt lat="46.35327" lon="-1.46762">
        <ele>11</ele>
        <time>2021-01-14T00:40:43Z</time>
      </trkpt>
      <trkpt lat="46.35366" lon="-1.46782">
        <ele>12</ele>
        <time>2021-01-14T00:41:38Z</time>
      </trkpt>
      <trkpt lat="46.35439" lon="-1.46749">
        <ele>14</ele>
        <time>2021-01-14T00:43:20Z</time>
      </trkpt>
      <trkpt lat="46.35509" lon="-1.46688">
        <ele>15</ele>
        <time>2021-01-14T00:45:09Z</time>
      </trkpt>
      <trkpt lat="46.35577" lon="-1.46619">
        <ele>16</ele>
        <time>2021-01-14T00:47:00Z</time>
      </trkpt>
      <trkpt lat="46.35727" lon="-1.46643">
        <ele>17</ele>
        <time>2021-01-14T00:50:21Z</time>
      </trkpt>
      <trkpt lat="46.35852" lon="-1.46629">
        <ele>12</ele>
        <time>2021-01-14T00:53:09Z</time>
      </trkpt>
      <trkpt lat="46.35852" lon="-1.46598">
        <ele>13</ele>
        <time>2021-01-14T00:53:37Z</time>
      </trkpt>
      <trkpt lat="46.35952" lon="-1.46652">
        <ele>13</ele>
        <time>2021-01-14T00:55:59Z</time>
      </trkpt>
      <trkpt lat="46.35979" lon="-1.46588">
        <ele>16</ele>
        <time>2021-01-14T00:57:09Z</time>
      </trkpt>
      <trkpt lat="46.36092" lon="-1.46368">
        <ele>24</ele>
        <time>2021-01-14T01:01:21Z</time>
      </trkpt>
      <trkpt lat="46.36101" lon="-1.46459">
        <ele>24</ele>
        <time>2021-01-14T01:02:46Z</time>
      </trkpt>
      <trkpt lat="46.36105" lon="-1.46618">
        <ele>18</ele>
        <time>2021-01-14T01:05:12Z</time>
      </trkpt>
      <trkpt lat="46.36072" lon="-1.46662">
        <ele>15</ele>
        <time>2021-01-14T01:06:12Z</time>
      </trkpt>
      <trkpt lat="46.36079" lon="-1.46831">
        <ele>10</ele>
        <time>2021-01-14T01:08:48Z</time>
      </trkpt>
      <trkpt lat="46.36118" lon="-1.46841">
        <ele>12</ele>
        <time>2021-01-14T01:09:41Z</time>
      </trkpt>
      <trkpt lat="46.3616" lon="-1.46894">
        <ele>15</ele>
        <time>2021-01-14T01:10:55Z</time>
      </trkpt>
      <trkpt lat="46.36213" lon="-1.46806">
        <ele>18</ele>
        <time>2021-01-14T01:12:43Z</time>
      </trkpt>
      <trkpt lat="46.36284" lon="-1.46842">
        <ele>15</ele>
        <time>2021-01-14T01:14:23Z</time>
      </trkpt>
      <trkpt lat="46.36324" lon="-1.46945">
        <ele>13</ele>
        <time>2021-01-14T01:16:12Z</time>
      </trkpt>
      <trkpt lat="46.36395" lon="-1.46963">
        <ele>14</ele>
        <time>2021-01-14T01:17:48Z</time>
      </trkpt>
      <trkpt lat="46.36473" lon="-1.47014">
        <ele>13</ele>
        <time>2021-01-14T01:19:42Z</time>
      </trkpt>
      <trkpt lat="46.36605" lon="-1.47053">
        <ele>13</ele>
        <time>2021-01-14T01:22:42Z</time>
      </trkpt>
      <trkpt lat="46.36644" lon="-1.47037">
        <ele>13</ele>
        <time>2021-01-14T01:23:36Z</time>
      </trkpt>
      <trkpt lat="46.36733" lon="-1.46961">
        <ele>12</ele>
        <time>2021-01-14T01:25:54Z</time>
      </trkpt>
      <trkpt lat="46.3687" lon="-1.46954">
        <ele>12</ele>
        <time>2021-01-14T01:28:57Z</time>
      </trkpt>
      <trkpt lat="46.3692" lon="-1.47179">
        <ele>14</ele>
        <time>2021-01-14T01:32:35Z</time>
      </trkpt>
      <trkpt lat="46.3694" lon="-1.47331">
        <ele>12</ele>
        <time>2021-01-14T01:34:57Z</time>
      </trkpt>
      <trkpt lat="46.37093" lon="-1.47187">
        <ele>12</ele>
        <time>2021-01-14T01:39:01Z</time>
      </trkpt>
      <trkpt lat="46.37104" lon="-1.47264">
        <ele>13</ele>
        <time>2021-01-14T01:40:13Z</time>
      </trkpt>
      <trkpt lat="46.37125" lon="-1.47303">
        <ele>14</ele>
        <time>2021-01-14T01:40:59Z</time>
      </trkpt>
      <trkpt lat="46.37178" lon="-1.47312">
        <ele>16</ele>
        <time>2021-01-14T01:42:10Z</time>
      </trkpt>
      <trkpt lat="46.3722" lon="-1.4733">
        <ele>17</ele>
        <time>2021-01-14T01:43:08Z</time>
      </trkpt>
      <trkpt lat="46.37304" lon="-1.47294">
        <ele>15</ele>
        <time>2021-01-14T01:45:05Z</time>
      </trkpt>
      <trkpt lat="46.37369" lon="-1.4734">
        <ele>14</ele>
        <time>2021-01-14T01:46:42Z</time>
      </trkpt>
      <trkpt lat="46.37444" lon="-1.47415">
        <ele>14</ele>
        <time>2021-01-14T01:48:43Z</time>
      </trkpt>
      <trkpt lat="46.37487" lon="-1.47429">
        <ele>13</ele>
        <time>2021-01-14T01:49:42Z</time>
      </trkpt>
      <trkpt lat="46.37521" lon="-1.47458">
        <ele>14</ele>
        <time>2021-01-14T01:50:35Z</time>
      </trkpt>
      <trkpt lat="46.3763" lon="-1.47159">
        <ele>15</ele>
        <time>2021-01-14T01:55:46Z</time>
      </trkpt>
      <trkpt lat="46.3767" lon="-1.47018">
        <ele>14</ele>
        <time>2021-01-14T01:58:06Z</time>
      </trkpt>
      <trkpt lat="46.37705" lon="-1.4688">
        <ele>13</ele>
        <time>2021-01-14T02:00:22Z</time>
      </trkpt>
      <trkpt lat="46.37781" lon="-1.46952">
        <ele>10</ele>
        <time>2021-01-14T02:02:23Z</time>
      </trkpt>
      <trkpt lat="46.37798" lon="-1.47056">
        <ele>13</ele>
        <time>2021-01-14T02:04:01Z</time>
      </trkpt>
      <trkpt lat="46.37903" lon="-1.47099">
        <ele>10</ele>
        <time>2021-01-14T02:06:27Z</time>
      </trkpt>
      <trkpt lat="46.38122" lon="-1.47258">
        <ele>12</ele>
        <time>2021-01-14T02:11:54Z</time>
      </trkpt>
      <trkpt lat="46.38185" lon="-1.47254">
        <ele>12</ele>
        <time>2021-01-14T02:13:18Z</time>
      </trkpt>
      <trkpt lat="46.38212" lon="-1.47224">
        <ele>13</ele>
        <time>2021-01-14T02:14:03Z</time>
      </trkpt>
      <trkpt lat="46.38303" lon="-1.47181">
        <ele>14</ele>
        <time>2021-01-14T02:16:11Z</time>
      </trkpt>
      <trkpt lat="46.38347" lon="-1.47013">
        <ele>11</ele>
        <time>2021-01-14T02:18:57Z</time>
      </trkpt>
      <trkpt lat="46.38375" lon="-1.47002">
        <ele>12</ele>
        <time>2021-01-14T02:19:35Z</time>
      </trkpt>
      <trkpt lat="46.38396" lon="-1.47016">
        <ele>12</ele>
        <time>2021-01-14T02:20:06Z</time>
      </trkpt>
      <trkpt lat="46.38447" lon="-1.47039">
        <ele>10</ele>
        <time>2021-01-14T02:21:17Z</time>
      </trkpt>
      <trkpt lat="46.38481" lon="-1.4706">
        <ele>9</ele>
        <time>2021-01-14T02:22:07Z</time>
      </trkpt>
      <trkpt lat="46.38528" lon="-1.47037">
        <ele>7</ele>
        <time>2021-01-14T02:23:13Z</time>
      </trkpt>
      <trkpt lat="46.38547" lon="-1.47007">
        <ele>7</ele>
        <time>2021-01-14T02:23:50Z</time>
      </trkpt>
      <trkpt lat="46.38585" lon="-1.46992">
        <ele>6</ele>
        <time>2021-01-14T02:24:43Z</time>
      </trkpt>
      <trkpt lat="46.38627" lon="-1.46992">
        <ele>6</ele>
        <time>2021-01-14T02:25:39Z</time>
      </trkpt>
      <trkpt lat="46.38679" lon="-1.47003">
        <ele>7</ele>
        <time>2021-01-14T02:26:49Z</time>
      </trkpt>
      <trkpt lat="46.3871" lon="-1.46923">
        <ele>6</ele>
        <time>2021-01-14T02:28:14Z</time>
      </trkpt>
    </trkseg>
  </trk>
</gpx>